createdAt,value
2018-06-14T00:02:12.678Z,10.90
2018-06-14T00:04:41.812Z,11.17
2018-06-14T00:07:10.896Z,10.97
2018-06-14T00:09:40.380Z,10.68
2018-06-14T00:12:09.544Z,11.77
2018-06-14T00:14:38.707Z,13.13
2018-06-14T00:17:08.037Z,11.50
2018-06-14T00:19:37.193Z,11.97
2018-06-14T00:22:06.337Z,12.30
2018-06-14T00:24:35.642Z,12.40
2018-06-14T00:27:04.836Z,14.30
2018-06-14T00:29:33.936Z,12.00
2018-06-14T00:32:03.396Z,11.83
2018-06-14T00:34:32.492Z,14.20
2018-06-14T00:37:01.629Z,15.70
2018-06-14T00:39:30.944Z,11.97
2018-06-14T00:42:00.063Z,12.70
2018-06-14T00:44:29.204Z,11.87
2018-06-14T00:46:58.800Z,12.53
2018-06-14T00:49:28.204Z,11.87
2018-06-14T00:51:57.380Z,14.43
2018-06-14T00:54:26.977Z,11.73
2018-06-14T00:57:12.976Z,11.93
2018-06-14T00:59:42.380Z,12.37
2018-06-14T01:02:11.629Z,11.87
2018-06-14T01:04:40.724Z,11.90
2018-06-14T01:07:10.076Z,13.57
2018-06-14T01:09:39.220Z,12.60
2018-06-14T01:12:08.512Z,12.20
2018-06-14T01:14:37.841Z,11.67
2018-06-14T01:17:07.129Z,11.47
2018-06-14T01:19:36.212Z,11.47
2018-06-14T01:22:05.516Z,12.07
2018-06-14T01:24:34.720Z,11.87
2018-06-14T01:27:07.496Z,11.70
2018-06-14T01:29:36.564Z,12.77
2018-06-14T01:32:05.664Z,12.60
2018-06-14T01:34:35.196Z,12.50
2018-06-14T01:37:04.314Z,13.37
2018-06-14T01:39:33.406Z,11.83
2018-06-14T01:42:02.797Z,12.17
2018-06-14T01:44:31.904Z,12.90
2018-06-14T01:47:01.056Z,14.30
2018-06-14T01:49:30.201Z,12.47
2018-06-14T01:51:59.347Z,14.33
2018-06-14T01:54:28.432Z,12.50
2018-06-14T01:56:57.590Z,12.57
2018-06-14T01:59:26.760Z,12.03
2018-06-14T02:01:55.877Z,12.57
2018-06-14T02:04:25.303Z,12.30
2018-06-14T02:06:54.424Z,13.00
2018-06-14T02:09:23.524Z,13.27
2018-06-14T02:11:52.994Z,12.40
2018-06-14T02:14:22.624Z,12.67
2018-06-14T02:16:51.760Z,12.90
2018-06-14T02:19:21.321Z,12.07
2018-06-14T02:21:50.428Z,12.57
2018-06-14T02:24:19.713Z,12.40
2018-06-14T02:26:48.841Z,12.90
2018-06-14T02:29:17.972Z,13.43
2018-06-14T02:31:47.105Z,12.30
2018-06-14T02:34:16.449Z,12.13
2018-06-14T02:36:45.669Z,12.50
2018-06-14T02:39:14.840Z,16.30
2018-06-14T02:41:43.961Z,13.40
2018-06-14T02:44:13.140Z,14.67
2018-06-14T02:46:42.228Z,14.17
2018-06-14T02:49:11.589Z,12.17
2018-06-14T02:51:40.704Z,12.82
2018-06-14T02:54:09.788Z,11.87
2018-06-14T02:56:38.937Z,12.40
2018-06-14T02:59:08.012Z,12.10
2018-06-14T03:01:37.221Z,12.83
2018-06-14T03:04:06.674Z,12.37
2018-06-14T03:06:36.177Z,12.80
2018-06-14T03:09:07.684Z,12.43
2018-06-14T03:11:36.852Z,15.38
2018-06-14T03:14:06.072Z,12.30
2018-06-14T03:16:35.430Z,12.23
2018-06-14T03:19:04.517Z,11.95
2018-06-14T03:21:33.668Z,12.18
2018-06-14T03:24:03.240Z,13.57
2018-06-14T03:26:32.376Z,11.83
2018-06-14T03:29:01.468Z,15.70
2018-06-14T03:31:30.612Z,12.40
2018-06-14T03:33:59.776Z,12.70
2018-06-14T03:36:29.596Z,15.63
2018-06-14T03:38:58.768Z,13.70
2018-06-14T03:41:27.909Z,14.00
2018-06-14T03:43:58.040Z,13.90
2018-06-14T03:46:27.928Z,12.97
2018-06-14T03:48:57.046Z,12.60
2018-06-14T03:51:26.164Z,11.70
2018-06-14T03:53:55.492Z,12.90
2018-06-14T03:56:24.584Z,13.97
2018-06-14T03:58:53.784Z,14.03
2018-06-14T04:01:22.948Z,13.60
2018-06-14T04:03:52.076Z,14.05
2018-06-14T04:06:21.277Z,15.03
2018-06-14T04:08:50.756Z,15.37
2018-06-14T04:11:19.987Z,14.87
2018-06-14T04:13:49.125Z,12.87
2018-06-14T04:16:18.272Z,13.20
2018-06-14T04:18:47.365Z,12.50
2018-06-14T04:21:16.453Z,13.03
2018-06-14T04:23:45.677Z,13.28
2018-06-14T04:26:15.801Z,12.90
2018-06-14T04:28:44.884Z,12.77
2018-06-14T04:31:13.992Z,12.97
2018-06-14T04:33:43.140Z,13.18
2018-06-14T04:36:12.273Z,12.87
2018-06-14T04:38:41.556Z,13.07
2018-06-14T04:41:11.380Z,12.35
2018-06-14T04:43:40.516Z,12.87
2018-06-14T04:46:09.644Z,12.73
2018-06-14T04:48:39.033Z,11.85
2018-06-14T04:51:08.189Z,12.63
2018-06-14T04:53:39.695Z,12.95
2018-06-14T04:56:11.580Z,11.55
2018-06-14T04:58:41.444Z,11.83
2018-06-14T05:01:10.593Z,12.20
2018-06-14T05:03:39.677Z,12.55
2018-06-14T05:06:09.031Z,11.53
2018-06-14T05:08:38.764Z,12.00
2018-06-14T05:11:07.949Z,12.40
2018-06-14T05:13:37.909Z,11.33
2018-06-14T05:16:06.982Z,11.97
2018-06-14T05:18:36.076Z,11.25
2018-06-14T05:21:05.197Z,11.70
2018-06-14T05:23:34.297Z,10.95
2018-06-14T05:26:04.120Z,12.88
2018-06-14T05:28:33.840Z,12.35
2018-06-14T05:31:03.601Z,12.00
2018-06-14T05:33:33.415Z,11.10
2018-06-14T05:36:03.304Z,11.78
2018-06-14T05:38:32.449Z,12.13
2018-06-14T05:41:02.465Z,11.93
2018-06-14T05:43:32.444Z,11.57
2018-06-14T05:46:02.296Z,13.55
2018-06-14T05:48:31.572Z,11.12
2018-06-14T05:51:01.489Z,13.08
2018-06-14T05:53:31.534Z,11.75
2018-06-14T05:56:01.623Z,11.60
2018-06-14T05:58:31.601Z,11.18
2018-06-14T06:01:01.655Z,11.43
2018-06-14T06:03:30.736Z,12.68
2018-06-14T06:06:00.652Z,12.47
2018-06-14T06:08:30.577Z,14.25
2018-06-14T06:11:01.320Z,15.03
2018-06-14T06:13:31.248Z,12.05
2018-06-14T06:16:01.364Z,11.65
2018-06-14T06:18:31.364Z,11.68
2018-06-14T06:21:00.492Z,12.23
2018-06-14T06:23:31.091Z,14.03
2018-06-14T06:26:01.032Z,11.68
2018-06-14T06:28:30.133Z,12.35
2018-06-14T06:31:00.220Z,11.50
2018-06-14T06:33:30.357Z,12.93
2018-06-14T06:36:00.237Z,11.08
2018-06-14T06:38:30.732Z,11.22
2018-06-14T06:41:00.014Z,11.70
2018-06-14T06:43:30.273Z,11.45
2018-06-14T06:46:00.325Z,10.95
2018-06-14T06:48:31.136Z,15.55
2018-06-14T06:51:01.868Z,11.28
2018-06-14T06:53:31.852Z,11.25
2018-06-14T06:56:02.884Z,12.13
2018-06-14T06:58:32.329Z,9.08
2018-06-14T07:01:02.356Z,9.13
2018-06-14T07:03:32.170Z,9.40
2018-06-14T07:06:02.975Z,10.78
2018-06-14T07:08:33.032Z,9.05
2018-06-14T07:11:02.760Z,8.63
2018-06-14T07:13:32.949Z,11.35
2018-06-14T07:16:02.081Z,7.55
2018-06-14T07:18:31.892Z,9.95
2018-06-14T07:21:01.994Z,8.80
2018-06-14T07:23:32.018Z,9.63
2018-06-14T07:26:02.037Z,8.63
2018-06-14T07:28:32.262Z,8.53
2018-06-14T07:31:02.267Z,6.90
2018-06-14T07:33:32.259Z,8.40
2018-06-14T07:36:03.583Z,7.22
2018-06-14T07:38:33.545Z,8.68
2018-06-14T07:41:02.957Z,6.78
2018-06-14T07:43:32.740Z,8.00
2018-06-14T07:46:03.016Z,6.30
2018-06-14T07:48:33.276Z,7.35
2018-06-14T07:51:03.610Z,5.58
2018-06-14T07:53:33.876Z,8.60
2018-06-14T07:56:03.024Z,7.65
2018-06-14T07:58:33.093Z,5.42
2018-06-14T08:01:02.246Z,8.18
2018-06-14T08:03:32.693Z,7.40
2018-06-14T08:06:02.801Z,6.05
2018-06-14T08:08:32.130Z,7.42
2018-06-14T08:11:02.056Z,6.12
2018-06-14T08:13:32.072Z,4.72
2018-06-14T08:16:01.177Z,5.75
2018-06-14T08:18:31.152Z,5.47
2018-06-14T08:21:00.927Z,6.35
2018-06-14T08:23:32.141Z,7.55
2018-06-14T08:26:02.149Z,6.15
2018-06-14T08:28:32.060Z,5.40
2018-06-14T08:31:02.077Z,6.92
2018-06-14T08:33:32.589Z,4.90
2018-06-14T08:36:02.625Z,6.40
2018-06-14T08:38:32.845Z,5.05
2018-06-14T08:41:02.672Z,5.47
2018-06-14T08:43:32.733Z,6.05
2018-06-14T08:46:02.654Z,6.00
2018-06-14T08:48:33.377Z,4.28
2018-06-14T08:51:03.505Z,5.92
2018-06-14T08:53:33.749Z,7.05
2018-06-14T08:56:03.076Z,4.87
2018-06-14T08:58:33.144Z,6.72
2018-06-14T09:01:02.268Z,6.28
2018-06-14T09:03:31.464Z,5.83
2018-06-14T09:06:01.751Z,5.83
2018-06-14T09:08:31.485Z,5.65
2018-06-14T09:11:01.601Z,4.33
2018-06-14T09:13:31.559Z,4.85
2018-06-14T09:16:00.721Z,5.53
2018-06-14T09:18:31.040Z,5.12
2018-06-14T09:21:01.061Z,5.00
2018-06-14T09:23:31.293Z,4.42
2018-06-14T09:26:01.518Z,4.72
2018-06-14T09:28:31.561Z,5.62
2018-06-14T09:31:01.904Z,4.95
2018-06-14T09:33:32.489Z,5.47
2018-06-14T09:36:03.357Z,4.47
2018-06-14T09:38:33.057Z,4.70
2018-06-14T09:41:03.653Z,4.35
2018-06-14T09:43:34.164Z,6.45
2018-06-14T09:46:04.477Z,6.90
2018-06-14T09:48:35.296Z,9.70
2018-06-14T09:51:04.691Z,5.75
2018-06-14T09:53:35.895Z,5.40
2018-06-14T09:56:07.140Z,4.45
2018-06-14T09:58:38.379Z,3.83
2018-06-14T10:01:07.992Z,4.83
2018-06-14T10:03:39.037Z,4.22
2018-06-14T10:06:08.900Z,4.45
2018-06-14T10:08:39.325Z,3.55
2018-06-14T10:11:09.208Z,5.22
2018-06-14T10:13:39.817Z,7.10
2018-06-14T10:16:09.677Z,3.92
2018-06-14T10:18:39.810Z,3.55
2018-06-14T10:21:09.087Z,4.53
2018-06-14T10:23:39.892Z,5.15
2018-06-14T10:26:10.083Z,4.87
2018-06-14T10:28:40.053Z,5.20
2018-06-14T10:31:10.384Z,4.08
2018-06-14T10:33:39.784Z,5.12
2018-06-14T10:36:09.492Z,4.58
2018-06-14T10:38:39.380Z,3.58
2018-06-14T10:41:09.521Z,6.22
2018-06-14T10:43:39.538Z,4.42
2018-06-14T10:46:09.421Z,4.05
2018-06-14T10:48:39.188Z,3.40
2018-06-14T10:51:09.081Z,3.37
2018-06-14T10:53:38.973Z,7.45
2018-06-14T10:56:08.602Z,4.85
2018-06-14T10:58:39.078Z,3.70
2018-06-14T11:01:08.790Z,4.85
2018-06-14T11:03:39.576Z,4.67
2018-06-14T11:06:09.677Z,3.45
2018-06-14T11:08:39.476Z,3.15
2018-06-14T11:11:09.240Z,5.50
2018-06-14T11:13:39.392Z,4.10
2018-06-14T11:16:09.987Z,4.15
2018-06-14T11:18:39.885Z,4.62
2018-06-14T11:21:09.901Z,5.20
2018-06-14T11:23:42.316Z,5.08
2018-06-14T11:26:11.522Z,3.70
2018-06-14T11:28:41.399Z,7.03
2018-06-14T11:31:11.505Z,3.37
2018-06-14T11:33:40.625Z,3.17
2018-06-14T11:36:10.561Z,3.30
2018-06-14T11:38:41.034Z,3.50
2018-06-14T11:41:10.950Z,3.75
2018-06-14T11:43:41.633Z,3.83
2018-06-14T11:46:11.988Z,4.33
2018-06-14T11:48:43.032Z,3.72
2018-06-14T11:51:13.118Z,3.92
2018-06-14T11:53:42.781Z,3.25
2018-06-14T11:56:12.781Z,3.58
2018-06-14T11:58:42.763Z,3.62
2018-06-14T12:01:12.012Z,4.03
2018-06-14T12:03:42.541Z,4.87
2018-06-14T12:06:12.741Z,3.22
2018-06-14T12:08:42.052Z,3.25
2018-06-14T12:11:12.585Z,4.90
2018-06-14T12:13:41.843Z,3.08
2018-06-14T12:16:11.985Z,3.60
2018-06-14T12:18:42.015Z,4.25
2018-06-14T12:21:11.200Z,4.85
2018-06-14T12:23:41.078Z,3.72
2018-06-14T12:26:10.986Z,4.05
2018-06-14T12:28:40.260Z,3.47
2018-06-14T12:31:11.077Z,4.22
2018-06-14T12:33:40.858Z,3.47
2018-06-14T12:36:11.116Z,5.37
2018-06-14T12:38:41.022Z,4.30
2018-06-14T12:41:10.190Z,3.80
2018-06-14T12:43:39.753Z,4.22
2018-06-14T12:46:09.825Z,4.78
2018-06-14T12:48:39.933Z,5.28
2018-06-14T12:51:10.159Z,4.30
2018-06-14T12:53:39.360Z,4.83
2018-06-14T12:56:08.609Z,4.08
2018-06-14T12:58:38.581Z,3.50
2018-06-14T13:01:08.420Z,4.58
2018-06-14T13:03:38.338Z,5.28
2018-06-14T13:06:08.220Z,3.92
2018-06-14T13:08:37.976Z,5.58
2018-06-14T13:11:07.167Z,3.70
2018-06-14T13:13:37.360Z,3.75
2018-06-14T13:16:06.481Z,5.22
2018-06-14T13:18:35.870Z,3.37
2018-06-14T13:21:05.705Z,4.08
2018-06-14T13:23:35.538Z,4.25
2018-06-14T13:26:04.668Z,4.05
2018-06-14T13:28:34.531Z,4.10
2018-06-14T13:31:03.803Z,5.83
2018-06-14T13:33:33.836Z,3.65
2018-06-14T13:36:03.556Z,3.87
2018-06-14T13:38:33.689Z,4.28
2018-06-14T13:41:03.493Z,4.15
2018-06-14T13:43:33.554Z,4.35
2018-06-14T13:46:03.268Z,4.03
2018-06-14T13:48:33.115Z,3.98
2018-06-14T13:51:03.052Z,3.47
2018-06-14T13:53:32.237Z,4.47
2018-06-14T13:56:02.268Z,4.12
2018-06-14T13:58:31.435Z,3.77
2018-06-14T14:01:01.667Z,3.77
2018-06-14T14:03:30.650Z,4.47
2018-06-14T14:06:00.626Z,3.33
2018-06-14T14:08:29.993Z,4.10
2018-06-14T14:11:00.657Z,4.15
2018-06-14T14:13:30.701Z,4.42
2018-06-14T14:16:01.835Z,4.45
2018-06-14T14:18:31.833Z,3.67
2018-06-14T14:21:01.701Z,3.87
2018-06-14T14:23:30.849Z,3.77
2018-06-14T14:26:00.195Z,3.95
2018-06-14T14:28:29.773Z,4.37
2018-06-14T14:30:59.593Z,4.92
2018-06-14T14:33:28.692Z,7.00
2018-06-14T14:35:57.898Z,5.15
2018-06-14T14:38:28.107Z,3.87
2018-06-14T14:40:57.236Z,4.05
2018-06-14T14:43:26.442Z,3.50
2018-06-14T14:45:57.009Z,4.55
2018-06-14T14:48:26.206Z,3.22
2018-06-14T14:50:55.670Z,3.83
2018-06-14T14:53:25.620Z,5.92
2018-06-14T14:55:55.753Z,3.50
2018-06-14T14:58:25.927Z,4.47
2018-06-14T15:00:56.011Z,4.40
2018-06-14T15:03:26.281Z,3.75
2018-06-14T15:05:56.175Z,4.00
2018-06-14T15:08:25.328Z,4.90
2018-06-14T15:10:55.496Z,3.85
2018-06-14T15:13:25.020Z,4.00
2018-06-14T15:15:54.160Z,4.62
2018-06-14T15:18:24.752Z,5.55
2018-06-14T15:20:54.144Z,4.10
2018-06-14T15:23:24.365Z,4.20
2018-06-14T15:25:54.305Z,6.70
2018-06-14T15:28:24.296Z,4.28
2018-06-14T15:30:53.468Z,5.92
2018-06-14T15:33:23.356Z,4.53
2018-06-14T15:35:53.454Z,4.62
2018-06-14T15:38:22.670Z,3.60
2018-06-14T15:40:51.820Z,4.37
2018-06-14T15:43:22.076Z,4.37
2018-06-14T15:45:51.928Z,4.60
2018-06-14T15:48:21.751Z,4.62
2018-06-14T15:50:50.995Z,4.45
2018-06-14T15:53:20.789Z,4.17
2018-06-14T15:56:13.898Z,4.30
2018-06-14T15:58:43.443Z,4.30
2018-06-14T16:01:12.546Z,4.28
2018-06-14T16:03:43.100Z,4.62
2018-06-14T16:06:12.249Z,4.58
2018-06-14T16:08:41.337Z,4.25
2018-06-14T16:11:11.335Z,4.50
2018-06-14T16:13:40.484Z,5.90
2018-06-14T16:16:10.212Z,5.47
2018-06-14T16:18:39.336Z,4.72
2018-06-14T16:21:09.350Z,4.78
2018-06-14T16:23:39.212Z,5.25
2018-06-14T16:26:08.364Z,5.20
2018-06-14T16:28:38.072Z,5.28
2018-06-14T16:31:08.068Z,4.97
2018-06-14T16:33:37.185Z,5.10
2018-06-14T16:36:07.353Z,5.03
2018-06-14T16:38:36.422Z,8.75
2018-06-14T16:41:05.517Z,6.20
2018-06-14T16:43:34.652Z,5.75
2018-06-14T16:46:04.058Z,5.78
2018-06-14T16:48:33.088Z,6.17
2018-06-14T16:51:02.209Z,5.12
2018-06-14T16:53:31.353Z,7.20
2018-06-14T16:56:00.535Z,5.10
2018-06-14T16:58:30.000Z,4.75
2018-06-14T17:00:59.316Z,5.45
2018-06-14T17:03:28.509Z,5.72
2018-06-14T17:05:58.517Z,7.60
2018-06-14T17:08:27.612Z,7.10
2018-06-14T17:10:57.508Z,5.60
2018-06-14T17:13:26.687Z,5.70
2018-06-14T17:15:56.283Z,5.60
2018-06-14T17:18:26.416Z,6.28
2018-06-14T17:20:55.524Z,5.15
2018-06-14T17:23:24.624Z,7.17
2018-06-14T17:25:54.536Z,5.58
2018-06-14T17:28:23.649Z,5.85
2018-06-14T17:30:53.753Z,7.37
2018-06-14T17:33:22.844Z,6.30
2018-06-14T17:35:51.948Z,5.90
2018-06-14T17:38:21.734Z,7.85
2018-06-14T17:40:50.876Z,7.25
2018-06-14T17:43:20.581Z,6.67
2018-06-14T17:45:50.464Z,5.58
2018-06-14T17:48:20.416Z,5.75
2018-06-14T17:50:50.332Z,4.40
2018-06-14T17:53:19.420Z,4.80
2018-06-14T17:55:49.292Z,5.25
2018-06-14T17:58:18.396Z,4.37
2018-06-14T18:00:47.526Z,5.75
2018-06-14T18:03:17.604Z,4.87
2018-06-14T18:05:46.691Z,6.67
2018-06-14T18:08:15.788Z,4.72
2018-06-14T18:10:44.914Z,4.55
2018-06-14T18:13:13.992Z,4.95
2018-06-14T18:15:43.175Z,5.53
2018-06-14T18:18:12.562Z,6.15
2018-06-14T18:20:41.731Z,4.70
2018-06-14T18:23:11.435Z,6.15
2018-06-14T18:25:40.996Z,5.67
2018-06-14T18:28:10.117Z,6.08
2018-06-14T18:30:39.256Z,6.33
2018-06-14T18:33:09.173Z,5.45
2018-06-14T18:35:38.297Z,7.50
2018-06-14T18:38:07.442Z,7.00
2018-06-14T18:40:36.796Z,6.40
2018-06-14T18:43:06.917Z,6.45
2018-06-14T18:45:36.082Z,4.53
2018-06-14T18:48:05.223Z,6.40
2018-06-14T18:50:35.184Z,5.92
2018-06-14T18:53:04.232Z,4.80
2018-06-14T18:55:33.420Z,6.72
2018-06-14T18:58:02.797Z,4.83
2018-06-14T19:00:31.936Z,5.42
2018-06-14T19:03:01.064Z,5.58
2018-06-14T19:05:30.463Z,7.70
2018-06-14T19:07:59.637Z,5.85
2018-06-14T19:10:28.812Z,5.28
2018-06-14T19:12:58.517Z,4.67
2018-06-14T19:15:27.589Z,4.20
2018-06-14T19:17:56.720Z,5.83
2018-06-14T19:20:25.853Z,4.85
2018-06-14T19:22:55.565Z,4.28
2018-06-14T19:25:24.707Z,4.40
2018-06-14T19:27:54.125Z,5.60
2018-06-14T19:30:24.108Z,4.20
2018-06-14T19:32:53.920Z,8.60
2018-06-14T19:35:23.033Z,5.53
2018-06-14T19:37:52.949Z,8.73
2018-06-14T19:40:22.992Z,5.72
2018-06-14T19:42:53.116Z,4.80
2018-06-14T19:45:22.251Z,4.03
2018-06-14T19:47:51.333Z,5.55
2018-06-14T19:50:20.484Z,5.33
2018-06-14T19:52:50.064Z,4.58
2018-06-14T19:55:19.184Z,5.67
2018-06-14T19:57:48.329Z,3.65
2018-06-14T20:00:17.474Z,5.20
2018-06-14T20:02:46.592Z,5.58
2018-06-14T20:05:16.508Z,5.80
2018-06-14T20:07:45.597Z,5.08
2018-06-14T20:10:14.716Z,4.97
2018-06-14T20:12:44.021Z,3.70
2018-06-14T20:15:13.813Z,4.30
2018-06-14T20:17:42.937Z,4.83
2018-06-14T20:20:12.037Z,4.33
2018-06-14T20:22:41.392Z,6.65
2018-06-14T20:25:10.505Z,5.60
2018-06-14T20:27:39.673Z,6.85
2018-06-14T20:30:09.744Z,6.03
2018-06-14T20:32:39.628Z,4.62
2018-06-14T20:35:08.805Z,4.37
2018-06-14T20:37:37.979Z,4.97
2018-06-14T20:40:07.996Z,4.37
2018-06-14T20:42:37.113Z,4.50
2018-06-14T20:45:06.315Z,5.15
2018-06-14T20:47:35.464Z,6.12
2018-06-14T20:50:04.604Z,7.15
2018-06-14T20:52:33.856Z,5.08
2018-06-14T20:55:03.208Z,5.47
2018-06-14T20:57:32.336Z,4.83
2018-06-14T21:00:01.393Z,4.40
2018-06-14T21:02:30.544Z,4.45
2018-06-14T21:04:59.840Z,14.78
2018-06-14T21:07:28.913Z,4.30
2018-06-14T21:09:58.289Z,4.92
2018-06-14T21:12:27.744Z,5.85
2018-06-14T21:14:56.840Z,8.03
2018-06-14T21:17:26.252Z,5.55
2018-06-14T21:19:55.353Z,5.30
2018-06-14T21:22:24.405Z,5.15
2018-06-14T21:24:53.735Z,8.05
2018-06-14T21:27:22.848Z,6.33
2018-06-14T21:29:51.997Z,6.40
2018-06-14T21:32:21.408Z,6.62
2018-06-14T21:34:50.576Z,6.90
2018-06-14T21:37:19.696Z,7.45
2018-06-14T21:39:49.228Z,9.48
2018-06-14T21:42:18.500Z,6.58
2018-06-14T21:44:47.614Z,6.87
2018-06-14T21:47:16.953Z,8.58
2018-06-14T21:49:46.097Z,7.72
2018-06-14T21:52:15.179Z,7.92
2018-06-14T21:54:45.092Z,8.65
2018-06-14T21:57:14.200Z,9.55
2018-06-14T21:59:43.325Z,8.28
2018-06-14T22:02:12.677Z,8.40
2018-06-14T22:04:41.836Z,8.90
2018-06-14T22:07:13.449Z,7.65
2018-06-14T22:09:43.214Z,9.63
2018-06-14T22:12:12.653Z,7.97
2018-06-14T22:14:42.097Z,8.83
2018-06-14T22:17:11.692Z,7.95
2018-06-14T22:19:40.960Z,8.75
2018-06-14T22:22:10.068Z,8.33
2018-06-14T22:24:39.152Z,9.00
2018-06-14T22:27:08.288Z,9.18
2018-06-14T22:29:37.401Z,8.10
2018-06-14T22:32:06.632Z,8.35
2018-06-14T22:34:52.776Z,9.05
2018-06-14T22:37:21.888Z,7.40
2018-06-14T22:39:51.383Z,8.05
2018-06-14T22:42:20.723Z,8.20
2018-06-14T22:44:49.848Z,7.50
2018-06-14T22:47:18.975Z,7.92
2018-06-14T22:49:48.349Z,7.60
2018-06-14T22:52:53.972Z,7.45
2018-06-14T22:55:24.856Z,7.60
2018-06-14T22:57:54.120Z,7.45
2018-06-14T23:02:35.613Z,7.08
2018-06-14T23:05:04.802Z,8.35
2018-06-14T23:07:33.959Z,7.30
2018-06-14T23:10:21.947Z,7.83
2018-06-14T23:12:51.241Z,7.58
2018-06-14T23:15:20.644Z,7.15
2018-06-14T23:17:50.429Z,7.55
2018-06-14T23:20:20.728Z,9.38
2018-06-14T23:22:51.028Z,8.45
2018-06-14T23:25:20.841Z,7.53
2018-06-14T23:27:49.948Z,7.53
2018-06-14T23:30:19.312Z,8.75
2018-06-14T23:32:48.676Z,7.05
2018-06-14T23:35:18.380Z,9.00
2018-06-14T23:37:47.800Z,7.72
2018-06-14T23:40:16.988Z,8.18
2018-06-14T23:42:46.028Z,7.08
2018-06-14T23:45:15.188Z,7.25
2018-06-14T23:47:44.324Z,8.85
2018-06-14T23:50:13.432Z,7.85
2018-06-14T23:52:42.812Z,7.47
2018-06-14T23:55:11.928Z,7.42
2018-06-14T23:57:41.257Z,7.53
